Time;durP1;ratioP1;P1;durP2;ratioP2;P2;SDS_P1;SDS_P2;PMS_P1;PMS_P2;Temp;Humidity;BMP_temperature;BMP_pressure;BME280_temperature;BME280_humidity;BME280_pressure;Samples;Min_cycle;Max_cycle;Signal;HPM_P1;HPM_P2
2022/10/02 00:00:29;;;;;;;0.85;0.35;;;14.10;84.70;;;;;;5019782;28;20593;-60
2022/10/02 00:03:01;;;;;;;1.52;0.40;;;14.10;85.00;;;;;;4919938;29;20129;-60
2022/10/02 00:05:35;;;;;;;1.50;0.43;;;14.10;84.90;;;;;;5003801;28;20030;-61
2022/10/02 00:08:06;;;;;;;1.60;0.50;;;14.10;85.00;;;;;;5019389;28;20076;-59
2022/10/02 00:10:37;;;;;;;1.27;0.40;;;14.10;85.20;;;;;;5020205;28;20037;-61
2022/10/02 00:13:24;;;;;;;2.13;0.60;;;14.10;85.30;;;;;;5019518;28;20121;-60
2022/10/02 00:15:51;;;;;;;3.05;0.60;;;14.10;85.40;;;;;;5018398;28;20047;-60
2022/10/02 00:18:24;;;;;;;1.65;0.40;;;14.10;85.40;;;;;;5019639;28;20057;-61
2022/10/02 00:21:10;;;;;;;1.67;0.52;;;14.10;85.60;;;;;;5016706;28;20072;-60
2022/10/02 00:23:44;;;;;;;1.33;0.65;;;14.10;85.80;;;;;;5018191;28;20057;-59
2022/10/02 00:26:29;;;;;;;1.33;0.63;;;14.00;85.70;;;;;;5014484;28;20029;-59
2022/10/02 00:29:12;;;;;;;4.40;0.82;;;14.00;85.90;;;;;;5016292;28;20057;-59
2022/10/02 00:32:06;;;;;;;1.83;0.57;;;14.10;86.00;;;;;;5016309;28;20203;-59
2022/10/02 00:34:53;;;;;;;1.55;0.40;;;14.10;86.30;;;;;;5015843;28;20037;-59
2022/10/02 00:37:32;;;;;;;1.73;0.57;;;14.10;86.10;;;;;;5017999;28;20588;-59
2022/10/02 00:40:35;;;;;;;1.25;0.80;;;14.10;86.40;;;;;;5016656;28;20038;-59
2022/10/02 00:43:09;;;;;;;2.53;0.60;;;14.10;86.70;;;;;;5015833;28;20129;-58
2022/10/02 00:45:50;;;;;;;3.22;0.50;;;14.10;86.40;;;;;;5016929;28;20041;-59
2022/10/02 00:48:25;;;;;;;3.05;0.65;;;14.00;86.50;;;;;;5014377;28;20575;-61
2022/10/02 00:51:22;;;;;;;2.55;0.47;;;14.10;86.70;;;;;;5015066;28;20052;-59
2022/10/02 00:54:05;;;;;;;2.45;0.43;;;14.10;86.70;;;;;;5015716;28;20052;-60
2022/10/02 00:56:49;;;;;;;1.75;0.50;;;14.10;86.70;;;;;;5015655;28;20861;-59
2022/10/02 00:59:45;;;;;;;2.15;0.70;;;14.10;87.00;;;;;;5014963;28;20107;-59
2022/10/02 01:02:33;;;;;;;;;;;14.20;87.20;;;;;;5016823;28;20123;-60
2022/10/02 01:05:01;;;;;;;1.65;0.40;;;14.20;87.30;;;;;;5015731;28;19914;-60
2022/10/02 01:07:28;;;;;;;0.82;0.45;;;14.20;86.60;;;;;;5017564;28;20030;-60
2022/10/02 01:09:54;;;;;;;1.00;0.40;;;14.20;86.60;;;;;;5016169;28;20529;-59
2022/10/02 01:12:21;;;;;;;1.02;0.32;;;14.20;86.70;;;;;;5014077;28;20041;-59
2022/10/02 01:14:46;;;;;;;4.13;0.50;;;14.20;86.80;;;;;;5013571;28;20065;-61
2022/10/02 01:17:28;;;;;;;1.45;0.50;;;14.20;86.80;;;;;;5014728;28;20061;-61
2022/10/02 01:19:54;;;;;;;2.60;0.50;;;14.20;87.10;;;;;;5015302;28;20567;-59
2022/10/02 01:22:28;;;;;;;1.40;0.47;;;14.20;86.80;;;;;;5016674;28;20129;-61
2022/10/02 01:24:58;;;;;;;2.15;0.68;;;14.30;87.60;;;;;;5015799;28;20538;-59
2022/10/02 01:27:25;;;;;;;4.10;0.70;;;14.30;86.80;;;;;;5014409;28;20034;-60
2022/10/02 01:29:59;;;;;;;1.02;0.50;;;14.30;86.80;;;;;;5015456;28;20052;-59
2022/10/02 01:32:26;;;;;;;1.70;0.73;;;14.30;86.80;;;;;;5014584;28;20037;-61
2022/10/02 01:34:53;;;;;;;3.65;0.60;;;14.30;86.70;;;;;;5015405;28;20405;-60
2022/10/02 01:37:25;;;;;;;1.60;0.45;;;14.30;86.70;;;;;;5013402;28;20061;-60
2022/10/02 01:39:51;;;;;;;2.67;0.75;;;14.30;86.90;;;;;;5016832;28;20049;-60
2022/10/02 01:42:18;;;;;;;3.35;0.90;;;14.30;86.80;;;;;;5016114;28;20041;-60
2022/10/02 01:44:44;;;;;;;2.72;0.70;;;14.30;86.90;;;;;;5009244;28;20465;-60
2022/10/02 01:47:36;;;;;;;1.75;0.60;;;14.40;86.90;;;;;;5015931;28;20049;-59
2022/10/02 01:50:34;;;;;;;2.58;0.70;;;14.40;86.90;;;;;;5002037;28;20511;-60
2022/10/02 01:53:14;;;;;;;0.75;0.50;;;14.40;86.90;;;;;;5016450;28;20033;-59
2022/10/02 01:55:47;;;;;;;2.25;0.47;;;14.50;86.70;;;;;;5016761;28;20029;-60
2022/10/02 01:58:43;;;;;;;0.73;0.47;;;14.50;86.70;;;;;;5016898;28;20386;-59
2022/10/02 02:01:23;;;;;;;1.27;0.40;;;14.40;86.70;;;;;;5017049;28;20088;-59
2022/10/02 02:04:17;;;;;;;1.35;0.60;;;14.50;86.70;;;;;;5014137;28;20038;-60
2022/10/02 02:07:03;;;;;;;2.17;0.47;;;14.40;86.60;;;;;;5013677;28;20042;-60
2022/10/02 02:09:38;;;;;;;1.73;0.70;;;14.50;86.60;;;;;;5015395;28;20497;-60
2022/10/02 02:12:20;;;;;;;2.33;0.90;;;14.50;86.70;;;;;;5012995;28;20037;-59
2022/10/02 02:14:51;;;;;;;1.40;0.60;;;14.50;86.70;;;;;;5014298;28;20526;-59
2022/10/02 02:17:25;;;;;;;1.63;0.50;;;14.50;86.60;;;;;;5014806;28;20045;-60
2022/10/02 02:20:08;;;;;;;1.40;0.60;;;14.50;86.60;;;;;;5015266;28;20042;-60
2022/10/02 02:22:43;;;;;;;1.85;0.50;;;14.50;86.70;;;;;;5014248;28;20084;-61
2022/10/02 02:25:14;;;;;;;3.20;0.70;;;14.50;86.60;;;;;;5014259;28;20534;-58
2022/10/02 02:28:02;;;;;;;1.65;0.70;;;14.50;86.60;;;;;;5012440;28;20509;-61
2022/10/02 02:30:30;;;;;;;2.13;0.68;;;14.50;86.70;;;;;;5013548;28;20048;-59
2022/10/02 02:33:29;;;;;;;3.47;0.77;;;14.60;86.60;;;;;;5013599;28;20034;-59
2022/10/02 02:35:59;;;;;;;2.58;0.63;;;14.60;86.60;;;;;;4996539;28;20030;-60
2022/10/02 02:38:32;;;;;;;1.80;0.70;;;14.60;86.50;;;;;;5014420;28;20468;-61
2022/10/02 02:41:04;;;;;;;1.67;0.70;;;14.60;86.50;;;;;;5013557;28;21648;-60
2022/10/02 02:43:50;;;;;;;1.10;0.50;;;14.60;86.50;;;;;;5015532;28;20040;-61
2022/10/02 02:46:26;;;;;;;1.17;0.65;;;14.60;86.40;;;;;;5013224;28;20080;-60
2022/10/02 02:49:01;;;;;;;3.83;0.57;;;14.60;86.40;;;;;;5014264;28;20294;-60
2022/10/02 02:51:32;;;;;;;2.67;0.80;;;14.50;86.40;;;;;;5013182;28;20041;-61
2022/10/02 02:53:58;;;;;;;1.90;0.63;;;14.50;86.60;;;;;;5015043;28;20077;-60
2022/10/02 02:56:26;;;;;;;1.63;0.57;;;14.60;86.70;;;;;;5013333;28;20136;-61
2022/10/02 02:59:00;;;;;;;2.60;0.80;;;14.50;86.70;;;;;;5014849;28;20041;-61
2022/10/02 03:01:26;;;;;;;2.85;0.88;;;14.50;86.70;;;;;;5012185;28;20041;-60
2022/10/02 03:03:51;;;;;;;1.85;0.60;;;14.50;86.70;;;;;;5014758;28;20034;-60
2022/10/02 03:06:17;;;;;;;2.13;0.60;;;14.50;86.80;;;;;;5019898;28;20030;-61
2022/10/02 03:08:45;;;;;;;1.73;0.55;;;14.50;86.70;;;;;;5020950;28;20053;-61
2022/10/02 03:11:35;;;;;;;1.05;0.60;;;14.60;86.80;;;;;;5018178;28;20136;-60
2022/10/02 03:14:25;;;;;;;2.20;0.57;;;14.60;86.90;;;;;;5022264;28;20038;-61
2022/10/02 03:16:51;;;;;;;1.20;0.60;;;14.60;86.90;;;;;;5018245;28;20037;-60
2022/10/02 03:19:59;;;;;;;3.88;0.70;;;14.60;86.70;;;;;;5021348;28;20045;-60
2022/10/02 03:23:03;;;;;;;1.55;0.52;;;14.60;86.70;;;;;;5019786;28;20041;-60
2022/10/02 03:25:41;;;;;;;1.88;0.70;;;14.60;87.40;;;;;;4937048;28;20519;-61
2022/10/02 03:28:17;;;;;;;1.30;0.60;;;14.70;86.60;;;;;;4940067;28;20418;-60
2022/10/02 03:30:44;;;;;;;4.30;0.57;;;14.60;86.60;;;;;;4989035;28;20398;-60
2022/10/02 03:33:14;;;;;;;1.48;0.52;;;14.70;86.60;;;;;;5022596;28;20117;-59
2022/10/02 03:35:41;;;;;;;1.40;0.60;;;14.70;86.50;;;;;;5019341;28;20151;-60
2022/10/02 03:38:10;;;;;;;3.22;0.60;;;14.70;86.50;;;;;;5021498;28;20117;-60
2022/10/02 03:40:36;;;;;;;1.13;0.50;;;14.70;86.40;;;;;;5019648;28;20057;-60
2022/10/02 03:43:02;;;;;;;2.13;0.70;;;14.70;86.50;;;;;;5020856;28;20041;-59
2022/10/02 03:45:28;;;;;;;1.60;0.57;;;14.70;86.40;;;;;;5019903;28;20037;-61
2022/10/02 03:47:54;;;;;;;2.97;0.90;;;14.70;86.40;;;;;;5001920;28;20512;-59
2022/10/02 03:50:20;;;;;;;2.30;0.90;;;14.80;86.40;;;;;;5022789;28;20045;-60
2022/10/02 03:52:49;;;;;;;4.82;1.15;;;14.80;86.40;;;;;;5018504;28;20033;-60
2022/10/02 03:55:17;;;;;;;2.28;0.60;;;14.80;86.20;;;;;;5021541;28;20578;-61
2022/10/02 03:57:44;;;;;;;2.53;0.52;;;14.80;86.20;;;;;;5021067;28;20120;-60
2022/10/02 04:00:18;;;;;;;2.53;0.70;;;14.80;86.00;;;;;;5021715;28;20033;-59
2022/10/02 04:02:47;;;;;;;;;;;14.80;85.80;;;;;;5019917;28;20136;-60
2022/10/02 04:05:18;;;;;;;2.00;0.70;;;14.90;85.90;;;;;;5021387;28;20395;-59
2022/10/02 04:07:47;;;;;;;2.67;0.70;;;14.80;85.50;;;;;;5020984;28;20051;-59
2022/10/02 04:10:12;;;;;;;3.85;0.75;;;14.90;85.50;;;;;;5019766;28;20042;-59
2022/10/02 04:12:43;;;;;;;3.22;0.70;;;14.90;85.50;;;;;;5016402;28;20087;-59
2022/10/02 04:15:12;;;;;;;2.45;0.60;;;14.90;85.50;;;;;;5018672;28;20040;-60
2022/10/02 04:17:47;;;;;;;2.58;0.63;;;14.90;86.30;;;;;;5015718;28;20033;-59
2022/10/02 04:20:45;;;;;;;3.20;0.90;;;14.90;85.30;;;;;;5017711;28;20057;-60
2022/10/02 04:23:26;;;;;;;1.80;0.70;;;14.90;85.20;;;;;;5016114;28;20138;-60
2022/10/02 04:25:58;;;;;;;1.95;0.80;;;14.90;85.30;;;;;;5016870;28;20045;-59
2022/10/02 04:28:36;;;;;;;2.75;0.70;;;14.90;85.30;;;;;;5015960;28;20493;-58
2022/10/02 04:31:04;;;;;;;2.50;0.80;;;14.90;85.30;;;;;;5015463;28;20069;-60
2022/10/02 04:33:31;;;;;;;1.83;0.70;;;14.90;85.30;;;;;;5016110;28;20042;-58
2022/10/02 04:36:31;;;;;;;2.55;0.88;;;14.90;85.30;;;;;;5016670;28;20099;-60
2022/10/02 04:39:39;;;;;;;1.55;0.60;;;14.90;85.40;;;;;;4965375;28;20501;-60
2022/10/02 04:42:15;;;;;;;2.83;1.55;;;14.90;85.40;;;;;;4970511;28;20037;-59
2022/10/02 04:44:52;;;;;;;2.65;1.30;;;15.00;85.50;;;;;;5017188;28;20061;-59
2022/10/02 04:47:42;;;;;;;2.60;0.82;;;14.90;85.40;;;;;;5014899;28;20033;-58
2022/10/02 04:50:36;;;;;;;2.13;0.80;;;14.90;85.50;;;;;;4971515;28;20124;-61
2022/10/02 04:53:13;;;;;;;2.40;1.10;;;14.90;85.50;;;;;;4978807;28;20164;-59
2022/10/02 04:56:10;;;;;;;2.05;1.20;;;15.00;85.60;;;;;;5016485;28;20041;-60
2022/10/02 04:59:04;;;;;;;3.03;1.23;;;15.00;85.60;;;;;;5016848;28;20030;-60
2022/10/02 05:01:51;;;;;;;3.22;1.00;;;14.90;85.50;;;;;;5017518;28;20041;-59
2022/10/02 05:04:37;;;;;;;2.75;0.90;;;14.90;85.50;;;;;;5018349;28;20545;-60
2022/10/02 05:07:28;;;;;;;1.65;0.82;;;15.00;85.60;;;;;;5015811;28;20038;-59
2022/10/02 05:10:13;;;;;;;1.85;0.60;;;14.90;85.70;;;;;;4972500;28;20034;-60
2022/10/02 05:12:45;;;;;;;;;;;15.00;85.70;;;;;;5016029;28;20497;-61
2022/10/02 05:15:26;;;;;;;1.65;0.68;;;15.00;85.80;;;;;;5014934;28;20316;-61
2022/10/02 05:17:52;;;;;;;3.78;1.92;;;15.00;85.70;;;;;;5013332;28;20065;-59
2022/10/02 05:20:42;;;;;;;25.48;11.00;;;15.00;85.70;;;;;;5017034;28;20187;-59
2022/10/02 05:23:16;;;;;;;35.03;19.98;;;15.00;86.00;;;;;;5015874;28;20493;-60
2022/10/02 05:25:48;;;;;;;8.07;5.45;;;15.00;86.00;;;;;;5014970;28;20052;-61
2022/10/02 05:28:38;;;;;;;5.35;3.72;;;15.00;86.10;;;;;;5016268;28;20536;-61
2022/10/02 05:31:13;;;;;;;9.15;6.78;;;15.00;86.60;;;;;;5014221;28;20048;-59
2022/10/02 05:33:47;;;;;;;5.30;2.08;;;15.00;86.50;;;;;;5014701;28;20030;-59
2022/10/02 05:36:56;;;;;;;2.97;1.35;;;15.00;86.50;;;;;;5013440;28;20049;-61
2022/10/02 05:39:31;;;;;;;3.50;1.42;;;15.00;86.90;;;;;;5015659;28;20041;-61
2022/10/02 05:42:16;;;;;;;;;;;15.00;86.70;;;;;;5015195;28;20137;-58
2022/10/02 05:44:58;;;;;;;3.78;1.58;;;15.10;87.10;;;;;;5014724;28;19925;-58
2022/10/02 05:47:29;;;;;;;2.55;1.70;;;15.10;86.80;;;;;;5016908;28;20111;-59
2022/10/02 05:50:10;;;;;;;2.55;1.50;;;15.10;86.70;;;;;;5015267;28;20501;-60
2022/10/02 05:53:02;;;;;;;4.50;1.20;;;15.10;87.20;;;;;;5016762;28;20036;-61
2022/10/02 05:55:33;;;;;;;2.10;1.10;;;15.10;87.30;;;;;;5014746;28;20074;-60
2022/10/02 05:58:45;;;;;;;4.63;1.30;;;15.10;87.10;;;;;;5017413;28;20041;-59
2022/10/02 06:01:32;;;;;;;1.33;1.10;;;15.10;87.40;;;;;;5016701;28;20095;-60
2022/10/02 06:04:16;;;;;;;1.70;1.15;;;15.10;87.30;;;;;;5017847;28;20496;-59
2022/10/02 06:06:54;;;;;;;2.03;0.95;;;15.20;87.30;;;;;;5015260;28;20170;-60
2022/10/02 06:09:25;;;;;;;2.22;1.00;;;15.20;87.40;;;;;;5016700;28;20090;-60
2022/10/02 06:12:03;;;;;;;2.47;1.10;;;15.20;88.10;;;;;;5017666;28;20029;-61
2022/10/02 06:14:58;;;;;;;2.72;1.40;;;15.20;87.30;;;;;;5015168;28;20033;-61
2022/10/02 06:17:31;;;;;;;4.50;1.20;;;15.20;87.50;;;;;;5016346;28;20033;-61
2022/10/02 06:20:00;;;;;;;1.83;1.10;;;15.20;87.30;;;;;;5015134;28;20141;-59
2022/10/02 06:22:34;;;;;;;2.38;1.23;;;15.30;87.30;;;;;;5015315;28;20034;-60
2022/10/02 06:25:23;;;;;;;2.50;1.20;;;15.30;87.30;;;;;;5013457;28;20061;-60
2022/10/02 06:27:57;;;;;;;2.33;1.17;;;15.30;87.30;;;;;;5014918;28;20042;-60
2022/10/02 06:30:23;;;;;;;1.98;1.30;;;15.30;87.10;;;;;;5013431;28;20448;-61
2022/10/02 06:33:10;;;;;;;3.92;1.40;;;15.30;87.10;;;;;;5015573;28;20279;-61
2022/10/02 06:35:58;;;;;;;3.50;1.27;;;15.40;87.10;;;;;;5016297;28;20339;-61
2022/10/02 06:38:48;;;;;;;5.00;1.33;;;15.40;87.10;;;;;;5016019;28;20042;-59
2022/10/02 06:41:19;;;;;;;2.97;1.10;;;15.40;87.00;;;;;;5013651;28;20653;-60
2022/10/02 06:44:22;;;;;;;2.58;1.10;;;15.40;86.70;;;;;;5016340;28;20438;-60
2022/10/02 06:47:14;;;;;;;1.98;1.00;;;15.50;86.80;;;;;;5012472;28;20033;-61
2022/10/02 06:50:06;;;;;;;3.33;1.20;;;15.50;86.80;;;;;;5016101;28;20026;-61
2022/10/02 06:52:38;;;;;;;2.53;0.93;;;15.50;86.80;;;;;;5016004;28;20060;-59
2022/10/02 06:55:39;;;;;;;1.85;1.30;;;15.60;86.70;;;;;;5016583;28;20460;-61
2022/10/02 06:58:27;;;;;;;2.75;1.30;;;15.50;86.80;;;;;;4999408;28;20037;-60
2022/10/02 07:00:57;;;;;;;3.00;1.30;;;15.60;86.70;;;;;;5015745;28;20053;-61
2022/10/02 07:03:53;;;;;;;2.90;1.20;;;15.60;86.80;;;;;;5012034;28;20044;-59
2022/10/02 07:06:24;;;;;;;;;;;15.60;86.90;;;;;;5016749;28;20041;-61
2022/10/02 07:09:28;;;;;;;2.30;1.30;;;15.70;86.90;;;;;;5000840;28;19913;-60
2022/10/02 07:12:07;;;;;;;3.33;1.00;;;15.70;86.70;;;;;;5017024;28;20406;-59
2022/10/02 07:14:51;;;;;;;1.92;0.80;;;15.70;86.60;;;;;;5013985;28;20041;-60
2022/10/02 07:17:56;;;;;;;2.10;1.10;;;15.70;86.70;;;;;;5016594;28;20033;-61
2022/10/02 07:20:31;;;;;;;1.55;1.10;;;15.80;86.70;;;;;;4936570;28;20411;-59
2022/10/02 07:23:12;;;;;;;1.08;0.77;;;15.80;86.70;;;;;;4934471;28;20063;-61
2022/10/02 07:25:59;;;;;;;1.75;0.77;;;15.80;86.70;;;;;;4983888;28;20145;-60
2022/10/02 07:28:54;;;;;;;3.40;0.88;;;15.90;86.60;;;;;;5014249;28;20125;-61
2022/10/02 07:31:42;;;;;;;2.35;0.77;;;15.90;86.60;;;;;;5015299;28;20041;-59
2022/10/02 07:34:20;;;;;;;2.03;0.95;;;15.90;86.40;;;;;;5011180;28;20093;-61
2022/10/02 07:37:03;;;;;;;2.78;1.10;;;16.00;86.50;;;;;;5013748;28;20075;-61
2022/10/02 07:39:52;;;;;;;2.75;0.95;;;16.00;86.40;;;;;;5014162;28;20120;-61
2022/10/02 07:42:26;;;;;;;1.52;0.80;;;16.10;86.50;;;;;;5014173;28;20126;-61
2022/10/02 07:45:01;;;;;;;1.92;0.80;;;16.10;86.40;;;;;;5015294;28;20034;-63
2022/10/02 07:47:57;;;;;;;4.25;1.27;;;16.20;86.40;;;;;;5014436;28;20165;-61
2022/10/02 07:50:42;;;;;;;3.38;0.90;;;16.20;86.20;;;;;;5012225;28;20060;-62
2022/10/02 07:53:29;;;;;;;3.65;0.85;;;16.30;86.00;;;;;;5015514;28;20052;-61
2022/10/02 07:55:56;;;;;;;1.02;0.60;;;16.40;85.90;;;;;;5018512;28;20038;-62
2022/10/02 07:58:35;;;;;;;3.63;0.70;;;16.40;86.10;;;;;;5018651;28;20472;-60
2022/10/02 08:01:07;;;;;;;2.58;0.80;;;16.50;86.00;;;;;;5016502;28;20087;-61
2022/10/02 08:03:38;;;;;;;2.25;1.00;;;16.50;86.00;;;;;;5016577;28;20415;-61
2022/10/02 08:06:05;;;;;;;1.38;1.05;;;16.50;85.90;;;;;;5017337;28;20092;-61
2022/10/02 08:08:37;;;;;;;3.10;0.90;;;16.60;85.90;;;;;;5015715;28;20512;-61
2022/10/02 08:11:08;;;;;;;2.85;1.05;;;16.70;85.80;;;;;;5013749;28;20432;-59
2022/10/02 08:13:55;;;;;;;2.42;1.10;;;16.80;85.90;;;;;;5018796;28;20041;-61
2022/10/02 08:16:28;;;;;;;2.50;1.00;;;16.80;85.70;;;;;;5019061;28;20034;-61
2022/10/02 08:19:04;;;;;;;1.65;0.90;;;16.80;85.70;;;;;;5019870;28;20052;-61
2022/10/02 08:21:35;;;;;;;2.50;0.90;;;16.90;85.80;;;;;;5017984;28;20033;-61
2022/10/02 08:24:11;;;;;;;2.53;0.80;;;17.00;85.70;;;;;;5018295;28;20045;-61
2022/10/02 08:27:14;;;;;;;1.50;0.70;;;17.10;85.40;;;;;;5015188;28;20033;-61
2022/10/02 08:29:47;;;;;;;5.82;1.05;;;17.10;84.80;;;;;;5016223;28;20041;-61
2022/10/02 08:32:14;;;;;;;3.60;0.90;;;17.20;85.00;;;;;;5014795;28;20080;-61
2022/10/02 08:34:41;;;;;;;2.28;0.90;;;17.30;85.20;;;;;;5017498;28;20323;-60
2022/10/02 08:37:15;;;;;;;2.08;1.10;;;17.40;85.20;;;;;;5017361;28;20045;-60
2022/10/02 08:40:14;;;;;;;1.52;0.88;;;17.40;85.40;;;;;;5016762;28;20044;-60
2022/10/02 08:43:07;;;;;;;2.00;0.90;;;17.50;84.30;;;;;;5017722;28;20033;-60
2022/10/02 08:45:56;;;;;;;1.20;0.80;;;17.60;84.20;;;;;;5017072;28;20063;-61
2022/10/02 08:49:00;;;;;;;1.42;1.00;;;17.70;84.00;;;;;;5016764;28;20116;-61
2022/10/02 08:51:48;;;;;;;1.63;0.85;;;17.80;83.50;;;;;;5016529;28;20042;-61
2022/10/02 08:54:14;;;;;;;1.45;0.90;;;17.80;83.20;;;;;;5018744;28;20065;-61
2022/10/02 08:57:02;;;;;;;1.33;0.95;;;17.90;83.70;;;;;;5017292;28;20036;-60
2022/10/02 09:00:17;;;;;;;2.00;0.90;;;18.00;83.50;;;;;;5016631;28;20053;-61
2022/10/02 09:02:48;;;;;;;3.42;0.80;;;18.00;82.60;;;;;;4983514;28;20044;-62
2022/10/02 09:05:50;;;;;;;3.05;0.70;;;18.10;82.90;;;;;;5013834;28;20029;-62
2022/10/02 09:08:41;;;;;;;4.40;0.82;;;18.20;82.40;;;;;;5011282;28;20449;-62
2022/10/02 09:11:37;;;;;;;1.40;0.73;;;18.30;81.50;;;;;;5015787;28;20037;-61
2022/10/02 09:14:16;;;;;;;2.03;0.93;;;18.40;82.20;;;;;;5017561;28;20041;-61
2022/10/02 09:17:22;;;;;;;1.33;0.82;;;18.50;81.40;;;;;;5014870;28;20421;-60
2022/10/02 09:20:21;;;;;;;2.20;0.90;;;18.60;81.20;;;;;;5018470;28;20087;-61
2022/10/02 09:23:24;;;;;;;1.85;1.05;;;18.70;81.00;;;;;;5016381;28;20041;-62
2022/10/02 09:26:15;;;;;;;2.47;0.80;;;18.90;80.20;;;;;;5014025;28;20037;-62
2022/10/02 09:29:08;;;;;;;0.60;0.60;;;18.90;79.70;;;;;;5018419;28;20128;-62
2022/10/02 09:32:02;;;;;;;1.15;0.70;;;19.00;79.40;;;;;;5017101;28;20156;-61
2022/10/02 09:34:54;;;;;;;0.52;0.52;;;19.00;79.50;;;;;;5015344;28;20037;-61
2022/10/02 09:37:58;;;;;;;0.60;0.60;;;19.10;79.10;;;;;;5017393;28;20103;-62
2022/10/02 09:40:42;;;;;;;1.23;0.50;;;19.10;78.50;;;;;;5013739;28;20065;-62
2022/10/02 09:43:51;;;;;;;1.88;0.60;;;19.20;78.10;;;;;;5015997;28;20068;-61
2022/10/02 09:46:37;;;;;;;0.70;0.70;;;19.30;77.80;;;;;;5016798;28;20087;-62
2022/10/02 09:49:08;;;;;;;1.50;1.25;;;19.30;78.30;;;;;;5014297;28;20132;-61
2022/10/02 09:51:57;;;;;;;0.60;0.60;;;19.30;78.90;;;;;;5017409;28;20038;-61
2022/10/02 09:54:49;;;;;;;0.60;0.60;;;19.40;77.70;;;;;;5018923;28;20079;-61
2022/10/02 09:57:33;;;;;;;1.38;1.27;;;19.50;78.00;;;;;;5017301;28;20508;-60
2022/10/02 10:00:10;;;;;;;1.23;0.70;;;19.50;77.70;;;;;;5018972;28;20044;-61
2022/10/02 10:02:52;;;;;;;0.90;0.50;;;19.60;78.50;;;;;;5018543;28;20038;-61
2022/10/02 10:05:26;;;;;;;0.68;0.50;;;19.60;78.30;;;;;;5018642;28;20041;-61
2022/10/02 10:07:58;;;;;;;3.97;0.60;;;19.70;78.70;;;;;;5011847;28;20117;-61
2022/10/02 10:10:37;;;;;;;0.98;0.50;;;19.80;78.20;;;;;;5019049;28;20033;-62
2022/10/02 10:13:16;;;;;;;0.60;0.60;;;19.80;77.10;;;;;;5014845;28;20038;-61
2022/10/02 10:16:04;;;;;;;0.60;0.50;;;19.90;77.40;;;;;;5017670;28;20125;-62
2022/10/02 10:18:48;;;;;;;0.65;0.65;;;20.00;77.10;;;;;;5016736;28;20125;-62
2022/10/02 10:21:53;;;;;;;1.08;0.65;;;20.10;75.80;;;;;;5017005;28;20714;-62
2022/10/02 10:24:28;;;;;;;2.05;0.35;;;20.10;75.10;;;;;;5004177;28;20060;-61
2022/10/02 10:27:18;;;;;;;0.52;0.45;;;20.10;74.90;;;;;;5016348;28;20038;-62
2022/10/02 10:30:08;;;;;;;0.20;0.20;;;20.10;74.20;;;;;;5016453;28;20067;-61
2022/10/02 10:32:53;;;;;;;0.30;0.30;;;20.10;74.00;;;;;;5016118;28;20030;-62
2022/10/02 10:35:18;;;;;;;0.93;0.60;;;20.10;75.40;;;;;;5015827;28;20033;-62
2022/10/02 10:40:53;;;;;;;1.83;0.50;;;20.10;74.10;;;;;;5014992;28;20099;-61
2022/10/02 10:43:43;;;;;;;0.73;0.50;;;20.10;75.40;;;;;;5017199;28;20044;-61
2022/10/02 10:46:43;;;;;;;0.10;0.10;;;20.10;75.10;;;;;;5017174;28;20045;-61
2022/10/02 10:49:20;;;;;;;0.30;0.30;;;20.10;74.60;;;;;;5015578;28;20029;-61
2022/10/02 10:51:58;;;;;;;0.55;0.40;;;20.10;75.00;;;;;;5016595;28;20080;-61
2022/10/02 10:54:47;;;;;;;1.00;0.43;;;20.10;74.50;;;;;;5015591;28;20045;-60
2022/10/02 10:57:30;;;;;;;0.55;0.50;;;20.10;74.00;;;;;;5015982;28;20585;-61
2022/10/02 11:00:32;;;;;;;0.70;0.30;;;20.10;74.90;;;;;;5014943;28;20045;-61
2022/10/02 11:03:15;;;;;;;0.40;0.30;;;20.20;73.20;;;;;;5016972;28;20133;-60
2022/10/02 11:05:50;;;;;;;0.20;0.20;;;20.20;74.20;;;;;;5014909;28;20041;-62
2022/10/02 11:08:54;;;;;;;0.45;0.20;;;20.20;73.80;;;;;;5017277;28;20038;-60
2022/10/02 11:11:34;;;;;;;0.65;0.57;;;20.20;74.40;;;;;;5013024;28;20378;-60
2022/10/02 11:14:35;;;;;;;1.73;0.20;;;20.20;75.10;;;;;;5017576;28;20240;-62
2022/10/02 11:17:35;;;;;;;0.82;0.20;;;20.30;76.50;;;;;;5015804;28;20038;-62
2022/10/02 11:20:20;;;;;;;1.50;0.30;;;20.30;75.80;;;;;;5013428;28;20033;-60
2022/10/02 11:23:19;;;;;;;0.47;0.40;;;20.30;75.80;;;;;;5016489;28;20052;-60
2022/10/02 11:26:06;;;;;;;0.30;0.30;;;20.20;75.90;;;;;;5015449;28;20551;-60
2022/10/02 11:29:04;;;;;;;0.22;0.20;;;20.20;76.80;;;;;;5018550;28;20421;-60
2022/10/02 11:32:03;;;;;;;0.47;0.20;;;20.20;78.10;;;;;;5020369;28;20083;-60
2022/10/02 11:34:43;;;;;;;0.45;0.20;;;20.20;77.60;;;;;;5020957;28;20030;-61
2022/10/02 11:37:24;;;;;;;0.22;0.13;;;20.20;76.80;;;;;;5018966;28;20041;-61
2022/10/02 11:40:00;;;;;;;0.10;0.00;;;20.20;76.70;;;;;;5020262;28;20464;-61
2022/10/02 11:42:32;;;;;;;0.10;0.10;;;20.20;77.00;;;;;;5020294;28;20041;-61
2022/10/02 11:45:32;;;;;;;0.47;0.13;;;20.20;77.50;;;;;;5021049;28;20061;-61
2022/10/02 11:48:22;;;;;;;0.40;0.10;;;20.10;77.00;;;;;;5020353;28;20030;-61
2022/10/02 11:51:08;;;;;;;0.90;0.20;;;20.10;77.90;;;;;;5019379;28;20571;-61
2022/10/02 11:53:56;;;;;;;0.20;0.10;;;20.10;77.90;;;;;;5018112;28;20048;-62
2022/10/02 11:56:39;;;;;;;0.85;0.20;;;20.00;78.40;;;;;;5019735;28;20034;-60
2022/10/02 11:59:32;;;;;;;0.35;0.10;;;19.90;78.60;;;;;;5018989;28;20033;-61
2022/10/02 12:02:06;;;;;;;0.22;0.20;;;19.90;79.30;;;;;;5018858;28;20037;-60
2022/10/02 12:04:51;;;;;;;0.20;0.20;;;19.80;79.30;;;;;;5019180;28;20521;-60
2022/10/02 12:07:34;;;;;;;0.10;0.10;;;19.60;79.90;;;;;;5018606;28;20181;-61
2022/10/02 12:10:15;;;;;;;0.80;0.60;;;19.60;79.40;;;;;;5020247;28;20034;-60
2022/10/02 12:13:08;;;;;;;0.47;0.47;;;19.50;79.60;;;;;;5017835;28;20716;-61
2022/10/02 12:15:46;;;;;;;0.20;0.20;;;19.50;80.60;;;;;;5019953;28;20076;-62
2022/10/02 12:18:37;;;;;;;0.30;0.10;;;19.40;80.40;;;;;;5018161;28;20037;-60
2022/10/02 12:27:08;;;;;;;1.38;0.43;;;19.40;81.20;;;;;;5018069;28;20033;-61
2022/10/02 12:29:55;;;;;;;0.30;0.20;;;19.40;81.20;;;;;;5020033;28;20124;-61
2022/10/02 12:32:48;;;;;;;0.80;0.30;;;19.40;80.80;;;;;;5017020;28;20370;-60
2022/10/02 12:35:40;;;;;;;0.17;0.17;;;19.40;81.80;;;;;;5017594;28;20412;-59
2022/10/02 12:38:21;;;;;;;0.20;0.10;;;19.30;81.50;;;;;;5018111;28;20117;-61
2022/10/02 12:41:18;;;;;;;0.30;0.30;;;19.40;81.40;;;;;;5019111;28;20048;-60
2022/10/02 12:43:56;;;;;;;1.25;0.20;;;19.30;82.30;;;;;;5020242;28;20041;-61
2022/10/02 12:46:27;;;;;;;0.20;0.20;;;19.30;81.70;;;;;;5017676;28;20046;-62
2022/10/02 12:49:15;;;;;;;1.95;0.47;;;19.30;81.80;;;;;;5018779;28;20125;-59
2022/10/02 12:51:53;;;;;;;0.30;0.30;;;19.20;82.10;;;;;;5019892;28;20117;-61
2022/10/02 12:54:29;;;;;;;0.35;0.35;;;19.20;81.90;;;;;;5012893;28;20107;-62
2022/10/02 13:00:15;;;;;;;1.15;0.70;;;19.10;82.50;;;;;;5019049;28;20172;-59
2022/10/02 13:02:52;;;;;;;0.73;0.70;;;19.20;82.90;;;;;;5018387;28;20068;-60
2022/10/02 13:05:49;;;;;;;0.52;0.50;;;19.20;84.00;;;;;;5013198;28;20096;-61
2022/10/02 13:08:52;;;;;;;0.30;0.30;;;19.20;83.90;;;;;;5015479;28;20561;-58
2022/10/02 13:11:47;;;;;;;0.50;0.38;;;19.20;84.00;;;;;;5011719;28;20115;-61
2022/10/02 13:14:25;;;;;;;0.40;0.35;;;19.20;83.70;;;;;;4933584;28;20187;-61
2022/10/02 13:17:18;;;;;;;0.40;0.40;;;19.30;84.10;;;;;;5015504;28;20040;-61
2022/10/02 13:20:14;;;;;;;0.57;0.57;;;19.30;85.20;;;;;;5018773;28;20405;-60
2022/10/02 13:22:51;;;;;;;0.65;0.20;;;19.40;84.60;;;;;;5018778;28;20497;-59
2022/10/02 13:25:33;;;;;;;1.17;0.30;;;19.50;84.00;;;;;;5019112;28;20041;-61
2022/10/02 13:28:12;;;;;;;2.58;0.47;;;19.50;83.80;;;;;;5015440;28;20509;-58
2022/10/02 13:31:18;;;;;;;0.20;0.20;;;19.50;84.00;;;;;;5018075;28;20402;-61
2022/10/02 13:33:58;;;;;;;0.30;0.28;;;19.50;84.50;;;;;;5006570;28;20033;-60
2022/10/02 13:36:34;;;;;;;0.60;0.20;;;19.60;84.80;;;;;;5017758;28;20071;-61
2022/10/02 13:39:25;;;;;;;0.28;0.28;;;19.60;84.20;;;;;;5016504;28;20517;-61
2022/10/02 13:41:59;;;;;;;0.50;0.20;;;19.70;83.90;;;;;;5018594;28;20042;-61
2022/10/02 13:44:40;;;;;;;0.38;0.30;;;19.70;83.70;;;;;;5017336;28;20033;-60
2022/10/02 13:47:24;;;;;;;0.45;0.20;;;19.80;84.00;;;;;;5018878;28;20041;-60
2022/10/02 13:50:08;;;;;;;1.00;0.90;;;19.80;83.80;;;;;;5019133;28;20037;-61
2022/10/02 13:52:42;;;;;;;0.30;0.30;;;19.80;83.70;;;;;;5018302;28;20083;-61
2022/10/02 13:55:21;;;;;;;1.25;1.15;;;19.80;83.60;;;;;;5017737;28;20038;-59
2022/10/02 13:57:59;;;;;;;1.65;0.85;;;19.80;83.80;;;;;;5019392;28;20072;-60
2022/10/02 14:00:36;;;;;;;0.70;0.60;;;19.80;83.40;;;;;;5016498;28;20101;-58
2022/10/02 14:03:20;;;;;;;0.80;0.80;;;19.90;83.00;;;;;;5019721;28;20051;-62
2022/10/02 14:05:55;;;;;;;2.42;2.00;;;19.90;82.90;;;;;;5017432;28;20099;-61
2022/10/02 14:08:30;;;;;;;2.22;1.38;;;19.90;83.10;;;;;;5016313;28;20456;-60
2022/10/02 14:11:09;;;;;;;3.10;2.80;;;19.90;82.90;;;;;;5018025;28;20256;-60
2022/10/02 14:13:50;;;;;;;1.92;0.70;;;19.80;82.80;;;;;;5018647;28;20057;-61